Time;durP1;ratioP1;P1;durP2;ratioP2;P2;SDS_P1;SDS_P2;PMS_P1;PMS_P2;Temp;Humidity;BMP_temperature;BMP_pressure;BME280_temperature;BME280_humidity;BME280_pressure;Samples;Min_cycle;Max_cycle;Signal;HPM_P1;HPM_P2
2021/04/03 06:42:55;;;;;;;31.77;22.17;;;;;;;;;;5605569;22;20155;-78
2021/04/03 06:45:20;;;;;;;31.30;21.73;;;;;;;;;;5031317;28;20042;-79
2021/04/03 06:47:47;;;;;;;32.30;21.65;;;;;;;;;;5054001;28;20025;-77
2021/04/03 06:50:16;;;;;;;29.88;21.63;;;;;;;;;;5055296;28;20021;-77
2021/04/03 06:52:42;;;;;;;31.80;22.13;;;;;;;;;;5031702;28;20017;-78
2021/04/03 06:55:13;;;;;;;31.83;21.27;;;;;;;;;;5052916;28;20407;-77
2021/04/03 06:57:40;;;;;;;31.63;21.20;;;;;;;;;;5035938;28;20029;-77
2021/04/03 07:00:06;;;;;;;37.75;22.48;;;;;;;;;;5024761;28;20029;-76
2021/04/03 07:02:32;;;;;;;32.13;22.52;;;;;;;;;;5049503;28;20032;-78
2021/04/03 07:04:58;;;;;;;29.75;20.52;;;;;;;;;;5013783;28;20021;-77
2021/04/03 07:07:25;;;;;;;31.38;22.00;;;;;;;;;;5026799;28;20098;-78
2021/04/03 07:09:50;;;;;;;31.17;21.52;;;;;;;;;;5023288;28;20018;-78
2021/04/03 07:12:16;;;;;;;28.63;20.67;;;;;;;;;;5030327;28;20033;-77
2021/04/03 07:14:44;;;;;;;30.58;21.20;;;;;;;;;;5021329;28;20032;-77
2021/04/03 07:17:10;;;;;;;31.65;22.20;;;;;;;;;;5037503;28;20055;-77
2021/04/03 07:19:38;;;;;;;30.70;22.17;;;;;;;;;;5033089;28;20029;-76
2021/04/03 07:22:07;;;;;;;30.33;21.55;;;;;;;;;;5050208;28;20561;-76
2021/04/03 07:24:34;;;;;;;30.00;21.45;;;;;;;;;;5031152;28;20037;-77
2021/04/03 07:27:00;;;;;;;34.95;21.77;;;;;;;;;;5028836;28;20456;-76
2021/04/03 07:29:40;;;;;;;31.33;21.27;;;;;;;;;;5034732;28;20155;-77
2021/04/03 07:32:06;;;;;;;29.33;21.52;;;;;;;;;;5052834;28;20032;-77
2021/04/03 07:34:39;;;;;;;30.30;22.17;;;;;;;;;;5035472;28;20029;-76
2021/04/03 07:37:08;;;;;;;30.05;21.13;;;;;;;;;;5014504;28;20025;-77
2021/04/03 07:39:34;;;;;;;31.80;21.63;;;;;;;;;;5051341;28;20114;-77
2021/04/03 07:42:00;;;;;;;26.95;20.40;;;;;;;;;;5030863;28;20037;-77
2021/04/03 07:44:25;;;;;;;30.48;21.02;;;;;;;;;;5048173;28;20032;-78
2021/04/03 07:46:56;;;;;;;29.92;21.55;;;;;;;;;;5028522;28;20036;-77
2021/04/03 07:49:32;;;;;;;32.05;20.50;;;;;;;;;;5038952;28;20017;-76
2021/04/03 07:51:58;;;;;;;29.85;21.73;;;;;;;;;;5031307;28;20029;-76
2021/04/03 07:54:28;;;;;;;29.73;21.40;;;;;;;;;;5034153;28;20148;-76
2021/04/03 07:56:55;;;;;;;27.58;19.70;;;;;;;;;;5034966;28;20029;-78
2021/04/03 07:59:42;;;;;;;28.52;20.85;;;;;;;;;;5048013;28;20030;-76
2021/04/03 08:02:12;;;;;;;30.42;20.73;;;;;;;;;;5043243;28;20044;-78
2021/04/03 08:04:38;;;;;;;26.50;19.90;;;;;;;;;;5010358;28;20515;-77
2021/04/03 08:07:03;;;;;;;28.35;20.50;;;;;;;;;;5034401;28;20029;-76
2021/04/03 08:09:34;;;;;;;26.85;20.77;;;;;;;;;;5036341;28;20378;-77
2021/04/03 08:12:00;;;;;;;27.58;20.65;;;;;;;;;;5043899;28;20036;-77
2021/04/03 08:14:27;;;;;;;28.45;21.42;;;;;;;;;;5032289;28;20033;-77
2021/04/03 08:16:53;;;;;;;28.35;21.25;;;;;;;;;;5016258;28;20083;-76
2021/04/03 08:19:23;;;;;;;29.38;20.90;;;;;;;;;;5017782;28;20022;-78
2021/04/03 08:21:49;;;;;;;28.55;21.25;;;;;;;;;;5049812;28;20029;-76
2021/04/03 08:24:15;;;;;;;28.27;20.98;;;;;;;;;;5043433;28;20021;-77
2021/04/03 08:26:41;;;;;;;29.33;20.20;;;;;;;;;;5035048;28;20388;-76
2021/04/03 08:29:34;;;;;;;28.65;21.02;;;;;;;;;;5031708;28;20033;-76
2021/04/03 08:32:00;;;;;;;28.80;21.70;;;;;;;;;;5034599;28;20029;-78
2021/04/03 08:34:26;;;;;;;27.85;20.40;;;;;;;;;;5016454;28;20021;-77
2021/04/03 08:36:51;;;;;;;28.83;21.20;;;;;;;;;;5020447;28;20029;-78
2021/04/03 08:39:18;;;;;;;30.13;21.88;;;;;;;;;;5024659;28;20112;-77
2021/04/03 08:41:46;;;;;;;30.10;22.13;;;;;;;;;;5034649;28;20088;-77
2021/04/03 08:44:21;;;;;;;28.05;20.98;;;;;;;;;;4989261;28;20562;-78
2021/04/03 08:46:49;;;;;;;30.35;20.95;;;;;;;;;;5011738;28;20036;-76
2021/04/03 08:49:25;;;;;;;27.95;21.33;;;;;;;;;;4994556;28;20030;-76
2021/04/03 08:51:51;;;;;;;29.35;21.33;;;;;;;;;;5006199;28;20034;-77
2021/04/03 08:54:17;;;;;;;29.05;21.02;;;;;;;;;;5006764;28;20029;-78
2021/04/03 08:56:43;;;;;;;27.45;20.88;;;;;;;;;;5026421;28;20393;-77
2021/04/03 08:59:22;;;;;;;30.60;22.25;;;;;;;;;;4990207;28;20025;-77
2021/04/03 09:01:50;;;;;;;28.00;21.40;;;;;;;;;;4992285;28;20037;-77
2021/04/03 09:04:15;;;;;;;32.53;23.45;;;;;;;;;;4996267;28;20025;-78
2021/04/03 09:06:53;;;;;;;30.65;23.98;;;;;;;;;;5014770;28;20511;-77
2021/04/03 09:09:20;;;;;;;29.15;22.17;;;;;;;;;;5006324;28;20032;-78
2021/04/03 09:12:02;;;;;;;31.02;22.88;;;;;;;;;;4983360;28;20029;-77
2021/04/03 09:14:36;;;;;;;27.10;21.25;;;;;;;;;;4997974;28;20025;-77
2021/04/03 09:17:26;;;;;;;30.48;22.17;;;;;;;;;;5011883;28;20030;-77
2021/04/03 09:20:07;;;;;;;29.65;21.35;;;;;;;;;;5012281;28;20037;-77
2021/04/03 09:22:38;;;;;;;35.72;23.73;;;;;;;;;;4999788;28;20033;-77
2021/04/03 09:25:07;;;;;;;30.87;22.83;;;;;;;;;;4994466;28;20038;-77
2021/04/03 09:27:32;;;;;;;30.48;23.52;;;;;;;;;;4994500;28;20030;-77
2021/04/03 09:30:09;;;;;;;31.50;23.23;;;;;;;;;;5002483;28;20374;-77
2021/04/03 09:32:42;;;;;;;28.50;22.35;;;;;;;;;;4997746;28;20029;-78
2021/04/03 09:35:08;;;;;;;26.77;21.27;;;;;;;;;;4988318;28;20100;-78
2021/04/03 09:37:34;;;;;;;29.42;22.15;;;;;;;;;;5004040;28;20036;-78
2021/04/03 09:40:00;;;;;;;29.38;21.25;;;;;;;;;;4996099;28;20030;-76
2021/04/03 09:42:27;;;;;;;27.63;22.05;;;;;;;;;;5005854;28;20442;-77
2021/04/03 09:44:59;;;;;;;30.33;23.98;;;;;;;;;;5045064;28;20029;-77
2021/04/03 09:47:25;;;;;;;28.65;22.25;;;;;;;;;;5038499;28;20064;-76
2021/04/03 09:49:51;;;;;;;29.13;23.30;;;;;;;;;;5017299;28;20029;-78
2021/04/03 09:52:17;;;;;;;29.05;23.23;;;;;;;;;;5034982;28;20025;-77
2021/04/03 09:54:43;;;;;;;29.05;22.80;;;;;;;;;;5006977;28;20082;-77
2021/04/03 09:57:08;;;;;;;30.52;22.90;;;;;;;;;;5018212;28;20032;-77
2021/04/03 09:59:34;;;;;;;28.92;22.85;;;;;;;;;;5038820;28;20634;-75
2021/04/03 10:02:00;;;;;;;33.65;24.63;;;;;;;;;;5022834;28;20034;-78
2021/04/03 10:04:26;;;;;;;29.38;23.20;;;;;;;;;;5034468;28;20500;-78
2021/04/03 10:06:51;;;;;;;29.85;22.73;;;;;;;;;;5030774;28;20080;-77
2021/04/03 10:09:17;;;;;;;30.13;23.75;;;;;;;;;;5037271;28;20071;-78
2021/04/03 10:11:43;;;;;;;31.45;24.60;;;;;;;;;;5040549;28;20022;-77
2021/04/03 10:14:08;;;;;;;30.45;24.27;;;;;;;;;;5032883;28;20036;-77
2021/04/03 10:16:34;;;;;;;30.02;23.08;;;;;;;;;;5047451;28;20037;-78
2021/04/03 10:18:59;;;;;;;29.85;23.40;;;;;;;;;;5032593;28;20431;-78
2021/04/03 10:21:25;;;;;;;30.05;22.70;;;;;;;;;;5015430;28;20040;-78
2021/04/03 10:23:51;;;;;;;29.02;23.25;;;;;;;;;;5014562;28;20076;-77
2021/04/03 10:26:16;;;;;;;32.25;23.75;;;;;;;;;;5014788;28;20400;-78
2021/04/03 10:28:42;;;;;;;30.90;23.70;;;;;;;;;;5030329;28;20026;-77
2021/04/03 10:31:07;;;;;;;32.65;24.55;;;;;;;;;;5029819;28;20029;-77
2021/04/03 10:33:33;;;;;;;30.17;22.38;;;;;;;;;;5030413;28;20032;-78
2021/04/03 10:35:58;;;;;;;29.60;22.70;;;;;;;;;;5031887;28;20438;-78
2021/04/03 10:38:23;;;;;;;26.27;22.40;;;;;;;;;;5014293;28;20029;-77
2021/04/03 10:40:49;;;;;;;30.60;22.90;;;;;;;;;;5014227;28;20029;-79
2021/04/03 10:43:14;;;;;;;31.60;22.50;;;;;;;;;;5042020;28;20068;-78
2021/04/03 10:45:40;;;;;;;29.08;23.95;;;;;;;;;;5050672;28;20028;-78
2021/04/03 10:48:05;;;;;;;34.97;22.48;;;;;;;;;;5050128;28;20033;-77
2021/04/03 10:50:31;;;;;;;31.17;23.60;;;;;;;;;;5050743;28;20029;-78
2021/04/03 10:52:56;;;;;;;29.48;22.63;;;;;;;;;;5051631;28;20054;-78
2021/04/03 10:55:22;;;;;;;28.42;22.90;;;;;;;;;;5034159;28;20032;-77
2021/04/03 10:57:47;;;;;;;31.75;23.08;;;;;;;;;;5033722;28;20025;-77
2021/04/03 11:00:13;;;;;;;32.15;22.85;;;;;;;;;;5050533;28;20411;-78
2021/04/03 11:02:38;;;;;;;28.67;22.55;;;;;;;;;;5051225;28;20404;-78
2021/04/03 11:05:04;;;;;;;29.95;23.63;;;;;;;;;;5050478;28;20024;-78
2021/04/03 11:07:30;;;;;;;26.65;21.92;;;;;;;;;;5050840;28;20091;-78
2021/04/03 11:09:56;;;;;;;28.48;23.38;;;;;;;;;;5054121;28;20384;-77
2021/04/03 11:12:21;;;;;;;27.73;23.05;;;;;;;;;;5054228;28;20434;-77
2021/04/03 11:14:46;;;;;;;29.95;21.90;;;;;;;;;;5055101;28;20036;-79
2021/04/03 11:17:12;;;;;;;26.73;21.35;;;;;;;;;;5055023;28;20032;-77
2021/04/03 11:19:37;;;;;;;27.38;21.30;;;;;;;;;;5053981;28;20025;-79
2021/04/03 11:22:03;;;;;;;25.13;20.48;;;;;;;;;;5054071;28;20372;-78
2021/04/03 11:24:29;;;;;;;26.40;20.77;;;;;;;;;;5054179;28;20029;-76
2021/04/03 11:26:54;;;;;;;26.05;20.92;;;;;;;;;;5053572;28;20021;-78
2021/04/03 11:29:20;;;;;;;29.40;20.48;;;;;;;;;;5037332;28;20515;-76
2021/04/03 11:31:45;;;;;;;25.23;20.58;;;;;;;;;;5053259;28;20032;-79
2021/04/03 11:34:11;;;;;;;27.13;21.27;;;;;;;;;;5020610;28;20025;-78
2021/04/03 11:36:36;;;;;;;26.73;20.17;;;;;;;;;;5054947;28;20025;-77
2021/04/03 11:39:03;;;;;;;28.08;20.65;;;;;;;;;;5053518;28;20040;-77
2021/04/03 11:41:29;;;;;;;25.58;20.70;;;;;;;;;;5036131;28;20492;-79
2021/04/03 11:43:56;;;;;;;26.42;19.90;;;;;;;;;;5016782;28;20040;-77
2021/04/03 11:46:21;;;;;;;21.58;18.42;;;;;;;;;;5017230;28;20029;-78
2021/04/03 11:48:47;;;;;;;24.50;20.23;;;;;;;;;;5000631;28;20029;-76
2021/04/03 11:51:12;;;;;;;26.33;20.02;;;;;;;;;;5034731;28;20033;-77
2021/04/03 11:53:38;;;;;;;27.35;20.00;;;;;;;;;;5000798;28;20147;-79
2021/04/03 11:56:04;;;;;;;26.00;19.55;;;;;;;;;;5000236;28;20628;-78
2021/04/03 11:58:30;;;;;;;25.83;19.58;;;;;;;;;;5034679;28;20029;-77
2021/04/03 12:00:55;;;;;;;23.35;17.77;;;;;;;;;;5016398;28;20036;-78
2021/04/03 12:03:21;;;;;;;24.52;17.33;;;;;;;;;;5016837;28;20485;-79
2021/04/03 12:05:46;;;;;;;25.05;17.60;;;;;;;;;;5034353;28;20025;-79
2021/04/03 12:08:12;;;;;;;27.00;17.85;;;;;;;;;;5000463;28;20025;-79
2021/04/03 12:10:37;;;;;;;22.30;17.23;;;;;;;;;;5000361;28;20020;-79
2021/04/03 12:13:03;;;;;;;21.02;16.92;;;;;;;;;;5034244;28;20061;-78
2021/04/03 12:15:28;;;;;;;23.95;16.58;;;;;;;;;;5000056;28;20068;-79
2021/04/03 12:17:54;;;;;;;23.15;17.50;;;;;;;;;;5000169;28;20476;-78
2021/04/03 12:20:20;;;;;;;20.60;16.40;;;;;;;;;;5015619;28;20041;-79
2021/04/03 12:22:45;;;;;;;22.08;16.75;;;;;;;;;;5034155;28;20025;-79
2021/04/03 12:25:11;;;;;;;21.48;16.27;;;;;;;;;;5016141;28;20033;-81
2021/04/03 12:27:37;;;;;;;19.98;15.43;;;;;;;;;;5034225;28;20492;-79
2021/04/03 12:30:03;;;;;;;19.95;15.27;;;;;;;;;;4999396;28;20026;-80
2021/04/03 12:32:29;;;;;;;18.75;16.25;;;;;;;;;;5000183;28;20087;-79
2021/04/03 12:34:55;;;;;;;23.33;15.40;;;;;;;;;;5016124;28;20033;-77
2021/04/03 12:37:20;;;;;;;20.27;14.90;;;;;;;;;;5016198;28;20029;-80
2021/04/03 12:39:46;;;;;;;19.40;15.27;;;;;;;;;;5016226;28;20031;-79
2021/04/03 12:42:11;;;;;;;26.70;15.52;;;;;;;;;;5025124;28;20045;-81
2021/04/03 12:44:37;;;;;;;20.00;14.50;;;;;;;;;;5034715;28;20127;-78
2021/04/03 12:47:05;;;;;;;22.15;14.68;;;;;;;;;;5038419;28;20025;-78
2021/04/03 12:49:31;;;;;;;22.17;15.20;;;;;;;;;;5035931;28;20035;-81
2021/04/03 12:51:56;;;;;;;23.23;15.13;;;;;;;;;;5015616;28;20025;-81
2021/04/03 12:54:22;;;;;;;20.73;14.50;;;;;;;;;;5016176;28;20481;-79
2021/04/03 12:56:48;;;;;;;17.33;13.85;;;;;;;;;;5033474;28;20021;-80
2021/04/03 12:59:14;;;;;;;20.67;14.32;;;;;;;;;;5031622;28;20032;-78
2021/04/03 13:01:39;;;;;;;15.40;12.98;;;;;;;;;;5015946;28;20025;-79
2021/04/03 13:04:05;;;;;;;21.65;12.48;;;;;;;;;;5031894;28;20021;-78
2021/04/03 13:06:30;;;;;;;18.60;13.27;;;;;;;;;;5015879;28;20052;-79
2021/04/03 13:08:56;;;;;;;14.80;11.80;;;;;;;;;;5032121;28;20034;-79
2021/04/03 13:11:22;;;;;;;16.52;12.00;;;;;;;;;;5033434;28;20025;-80
2021/04/03 13:13:47;;;;;;;19.40;13.00;;;;;;;;;;5015447;28;20020;-80
2021/04/03 13:16:13;;;;;;;20.23;11.70;;;;;;;;;;5015739;28;20029;-81
2021/04/03 13:18:39;;;;;;;17.20;11.90;;;;;;;;;;4999609;28;20033;-79
2021/04/03 13:21:04;;;;;;;18.67;12.20;;;;;;;;;;5015448;28;20481;-81
2021/04/03 13:23:30;;;;;;;19.60;12.35;;;;;;;;;;5015390;28;20037;-81
2021/04/03 13:25:55;;;;;;;17.63;12.15;;;;;;;;;;5032958;28;20079;-80
2021/04/03 13:28:21;;;;;;;20.52;12.48;;;;;;;;;;5031421;28;20033;-80
2021/04/03 13:30:46;;;;;;;16.48;11.35;;;;;;;;;;5032771;28;20079;-79
2021/04/03 13:33:11;;;;;;;21.75;11.02;;;;;;;;;;5015073;28;20021;-79
2021/04/03 13:35:37;;;;;;;15.80;10.85;;;;;;;;;;5031720;28;20036;-80
2021/04/03 13:38:02;;;;;;;22.23;11.40;;;;;;;;;;5015119;28;20025;-82
2021/04/03 13:40:28;;;;;;;15.77;10.35;;;;;;;;;;5032543;28;20492;-80
2021/04/03 13:42:53;;;;;;;19.42;11.02;;;;;;;;;;5028519;28;20132;-81
2021/04/03 13:45:19;;;;;;;18.02;9.75;;;;;;;;;;4998566;28;20030;-80
2021/04/03 13:47:44;;;;;;;13.15;10.40;;;;;;;;;;4998874;28;20079;-80
2021/04/03 13:50:10;;;;;;;12.30;9.27;;;;;;;;;;5007447;28;20031;-79
2021/04/03 13:52:35;;;;;;;19.33;9.40;;;;;;;;;;5009036;28;20531;-82
2021/04/03 13:55:01;;;;;;;15.57;9.48;;;;;;;;;;5027569;28;20543;-80
2021/04/03 13:57:27;;;;;;;16.55;9.15;;;;;;;;;;4998501;28;20037;-81
2021/04/03 13:59:53;;;;;;;18.63;8.77;;;;;;;;;;5015036;28;20029;-80
2021/04/03 14:02:18;;;;;;;14.27;8.57;;;;;;;;;;5014835;28;20025;-80
2021/04/03 14:04:44;;;;;;;15.30;8.35;;;;;;;;;;4998590;28;20381;-81
2021/04/03 14:07:09;;;;;;;13.05;8.40;;;;;;;;;;4998289;28;20503;-79
2021/04/03 14:09:35;;;;;;;14.00;8.43;;;;;;;;;;5014878;28;20029;-81
2021/04/03 14:12:00;;;;;;;14.00;8.63;;;;;;;;;;5014258;28;20021;-80
2021/04/03 14:14:26;;;;;;;10.02;7.57;;;;;;;;;;5032173;28;20029;-81
2021/04/03 14:16:51;;;;;;;15.25;8.20;;;;;;;;;;5014757;28;20029;-81
2021/04/03 14:19:16;;;;;;;13.25;8.48;;;;;;;;;;5032078;28;20424;-81
2021/04/03 14:21:42;;;;;;;12.35;7.03;;;;;;;;;;5014750;28;20477;-81
2021/04/03 14:24:08;;;;;;;10.77;7.13;;;;;;;;;;5014410;28;20500;-80
2021/04/03 14:26:34;;;;;;;18.80;7.90;;;;;;;;;;4992894;28;20482;-81
2021/04/03 14:28:59;;;;;;;13.98;6.78;;;;;;;;;;4998396;28;20540;-79
2021/04/03 14:31:25;;;;;;;8.63;6.28;;;;;;;;;;4994354;28;20088;-80
2021/04/03 14:33:52;;;;;;;12.65;7.57;;;;;;;;;;5003473;28;20477;-82
2021/04/03 14:36:17;;;;;;;10.55;6.50;;;;;;;;;;5012126;28;20029;-82
2021/04/03 14:38:43;;;;;;;14.82;6.53;;;;;;;;;;4998149;28;20547;-80
2021/04/03 14:41:08;;;;;;;9.02;6.07;;;;;;;;;;4994078;28;20033;-81
2021/04/03 14:43:36;;;;;;;14.15;6.53;;;;;;;;;;5021667;28;20048;-82
2021/04/03 14:46:03;;;;;;;13.23;6.45;;;;;;;;;;5006640;28;20032;-81
2021/04/03 14:48:29;;;;;;;11.32;6.07;;;;;;;;;;5017938;28;20025;-81
2021/04/03 14:50:55;;;;;;;12.05;6.28;;;;;;;;;;5003358;28;20030;-81
2021/04/03 14:53:20;;;;;;;13.75;6.32;;;;;;;;;;5006607;28;20036;-82
2021/04/03 14:55:46;;;;;;;9.55;5.65;;;;;;;;;;4998471;28;20053;-81
2021/04/03 14:58:11;;;;;;;11.63;6.40;;;;;;;;;;5006940;28;20447;-80
2021/04/03 15:00:37;;;;;;;10.02;6.22;;;;;;;;;;5022900;28;20025;-81
2021/04/03 15:03:03;;;;;;;6.68;5.18;;;;;;;;;;4995978;28;20033;-81
2021/04/03 15:05:28;;;;;;;11.63;5.32;;;;;;;;;;5000504;28;20057;-81
2021/04/03 15:07:53;;;;;;;11.85;5.78;;;;;;;;;;5001367;28;20147;-81
2021/04/03 15:10:19;;;;;;;12.90;5.40;;;;;;;;;;5007323;28;20037;-81
2021/04/03 15:12:44;;;;;;;9.93;5.20;;;;;;;;;;4991454;28;20021;-80
2021/04/03 15:15:10;;;;;;;10.77;5.82;;;;;;;;;;5031445;28;20041;-80
2021/04/03 15:17:36;;;;;;;10.07;5.38;;;;;;;;;;5015719;28;20121;-80
2021/04/03 15:20:03;;;;;;;8.40;4.63;;;;;;;;;;5004775;28;20017;-81
2021/04/03 15:22:29;;;;;;;8.35;5.03;;;;;;;;;;5006591;28;20065;-80
2021/04/03 15:24:54;;;;;;;8.15;5.50;;;;;;;;;;4997994;28;20505;-80
2021/04/03 15:27:20;;;;;;;12.13;5.45;;;;;;;;;;4998614;28;20565;-79
2021/04/03 15:29:45;;;;;;;10.90;5.57;;;;;;;;;;5017265;28;20547;-79
2021/04/03 15:32:10;;;;;;;9.32;5.30;;;;;;;;;;5013697;28;20025;-79
2021/04/03 15:34:36;;;;;;;10.00;4.82;;;;;;;;;;5006144;28;20080;-79
2021/04/03 15:37:02;;;;;;;8.13;5.00;;;;;;;;;;5007315;28;20030;-79
2021/04/03 15:39:27;;;;;;;8.48;5.03;;;;;;;;;;4980477;28;20041;-81
2021/04/03 15:41:52;;;;;;;9.50;4.53;;;;;;;;;;5005199;28;20078;-80
2021/04/03 15:44:18;;;;;;;8.57;4.72;;;;;;;;;;5042759;28;20033;-80
2021/04/03 15:46:44;;;;;;;6.13;4.80;;;;;;;;;;5050358;28;20048;-79
2021/04/03 15:49:10;;;;;;;7.82;4.90;;;;;;;;;;5033078;28;20033;-80
2021/04/03 15:51:35;;;;;;;9.68;5.30;;;;;;;;;;5041548;28;20029;-80
2021/04/03 15:54:01;;;;;;;9.43;4.35;;;;;;;;;;5035430;28;20109;-79
2021/04/03 15:56:26;;;;;;;11.85;4.68;;;;;;;;;;5016641;28;20044;-80
2021/04/03 15:58:52;;;;;;;9.35;4.15;;;;;;;;;;5017405;28;20099;-80
2021/04/03 16:01:17;;;;;;;11.82;4.07;;;;;;;;;;5033365;28;20029;-81
2021/04/03 16:03:43;;;;;;;6.72;4.10;;;;;;;;;;5034515;28;20041;-79
2021/04/03 16:06:08;;;;;;;6.78;4.28;;;;;;;;;;5017082;28;20038;-79
2021/04/03 16:08:34;;;;;;;6.78;4.18;;;;;;;;;;5034212;28;20025;-79
2021/04/03 16:10:59;;;;;;;6.90;4.35;;;;;;;;;;5033475;28;20029;-79
2021/04/03 16:13:25;;;;;;;8.48;4.50;;;;;;;;;;5033256;28;20025;-79
2021/04/03 16:15:50;;;;;;;6.80;4.10;;;;;;;;;;5033610;28;20495;-79
2021/04/03 16:18:16;;;;;;;6.65;4.60;;;;;;;;;;5033613;28;20025;-79
2021/04/03 16:20:42;;;;;;;8.70;5.10;;;;;;;;;;5016665;28;20036;-79
2021/04/03 16:23:08;;;;;;;8.40;5.05;;;;;;;;;;5016472;28;20477;-80
2021/04/03 16:25:34;;;;;;;8.85;4.15;;;;;;;;;;5034289;28;20033;-79
2021/04/03 16:27:59;;;;;;;6.15;4.13;;;;;;;;;;5016750;28;20035;-79
2021/04/03 16:30:28;;;;;;;8.48;3.95;;;;;;;;;;5016489;28;20037;-79
2021/04/03 16:32:53;;;;;;;10.35;4.53;;;;;;;;;;5016852;28;20099;-79
2021/04/03 16:35:19;;;;;;;5.03;4.28;;;;;;;;;;5035615;28;20033;-81
2021/04/03 16:37:45;;;;;;;7.20;4.13;;;;;;;;;;5029976;28;20108;-80
2021/04/03 16:40:11;;;;;;;6.50;3.80;;;;;;;;;;5035503;28;20025;-80
2021/04/03 16:42:36;;;;;;;6.85;4.25;;;;;;;;;;5030375;28;20046;-80
2021/04/03 16:45:03;;;;;;;9.52;3.97;;;;;;;;;;5034034;28;20083;-81
2021/04/03 16:47:28;;;;;;;9.25;4.53;;;;;;;;;;5034118;28;20036;-81
2021/04/03 16:49:54;;;;;;;7.60;4.05;;;;;;;;;;5037715;28;20110;-80
2021/04/03 16:52:20;;;;;;;8.85;4.13;;;;;;;;;;5043708;28;20077;-80
2021/04/03 16:54:45;;;;;;;8.25;4.10;;;;;;;;;;5031074;28;20547;-81
2021/04/03 16:57:11;;;;;;;9.63;4.32;;;;;;;;;;5032768;28;20029;-79
2021/04/03 16:59:37;;;;;;;8.55;4.32;;;;;;;;;;5045609;28;20029;-79
2021/04/03 17:02:03;;;;;;;7.28;3.92;;;;;;;;;;5028144;28;20119;-80
2021/04/03 17:04:28;;;;;;;8.18;3.67;;;;;;;;;;5038502;28;20033;-79
2021/04/03 17:06:54;;;;;;;12.23;4.82;;;;;;;;;;5029502;28;20029;-80
2021/04/03 17:09:19;;;;;;;7.07;3.85;;;;;;;;;;5032321;28;20052;-81
2021/04/03 17:11:45;;;;;;;8.00;3.72;;;;;;;;;;5023267;28;20104;-80
2021/04/03 17:14:10;;;;;;;9.50;3.88;;;;;;;;;;5035180;28;20039;-78
2021/04/03 17:16:36;;;;;;;8.05;4.28;;;;;;;;;;5038093;28;20040;-81
2021/04/03 17:19:01;;;;;;;5.95;3.92;;;;;;;;;;5037867;28;20103;-81
2021/04/03 17:21:27;;;;;;;8.20;3.72;;;;;;;;;;5023123;28;20512;-81
2021/04/03 17:23:52;;;;;;;8.48;3.72;;;;;;;;;;5033839;28;20033;-81
2021/04/03 17:26:17;;;;;;;7.97;3.97;;;;;;;;;;5036367;28;20052;-81
2021/04/03 17:28:43;;;;;;;7.07;3.40;;;;;;;;;;5032643;28;20072;-81
2021/04/03 17:31:08;;;;;;;9.73;4.38;;;;;;;;;;5043067;28;20024;-81
2021/04/03 17:33:34;;;;;;;8.75;4.40;;;;;;;;;;5040700;28;20029;-81
2021/04/03 17:36:01;;;;;;;4.97;3.63;;;;;;;;;;5043440;28;20021;-82
2021/04/03 17:38:27;;;;;;;6.47;4.30;;;;;;;;;;5038271;28;20056;-81
2021/04/03 17:40:52;;;;;;;5.15;3.47;;;;;;;;;;5027727;28;20064;-79
2021/04/03 17:43:21;;;;;;;9.23;4.40;;;;;;;;;;5033219;28;20049;-80
2021/04/03 17:45:46;;;;;;;7.82;4.00;;;;;;;;;;5026969;28;20030;-81
2021/04/03 17:48:12;;;;;;;5.82;3.67;;;;;;;;;;5027302;28;20033;-81
2021/04/03 17:50:38;;;;;;;12.10;4.20;;;;;;;;;;5042209;28;20022;-80
2021/04/03 17:53:03;;;;;;;10.88;4.38;;;;;;;;;;5031997;28;20484;-81
2021/04/03 17:55:29;;;;;;;14.27;4.38;;;;;;;;;;5034799;28;20024;-82
2021/04/03 17:57:54;;;;;;;7.63;4.32;;;;;;;;;;5037398;28;20036;-80
2021/04/03 18:00:20;;;;;;;7.22;4.10;;;;;;;;;;5023531;28;20040;-82
2021/04/03 18:02:45;;;;;;;6.13;3.88;;;;;;;;;;5039926;28;20033;-80
2021/04/03 18:05:11;;;;;;;8.20;4.32;;;;;;;;;;5027062;28;20039;-81
2021/04/03 18:07:36;;;;;;;7.15;3.83;;;;;;;;;;5042804;28;20028;-82
2021/04/03 18:10:03;;;;;;;9.85;4.13;;;;;;;;;;5010666;28;20116;-81
2021/04/03 18:12:29;;;;;;;9.30;4.32;;;;;;;;;;5019911;28;20096;-80
2021/04/03 18:14:55;;;;;;;8.93;5.75;;;;;;;;;;5029147;28;20029;-79
2021/04/03 18:17:20;;;;;;;11.20;6.50;;;;;;;;;;5037112;28;20032;-78
2021/04/03 18:19:46;;;;;;;5.13;3.70;;;;;;;;;;5037027;28;20043;-79
2021/04/03 18:22:12;;;;;;;6.70;4.43;;;;;;;;;;5035155;28;20030;-81
2021/04/03 18:24:42;;;;;;;7.97;5.05;;;;;;;;;;5010159;28;20496;-81
2021/04/03 18:27:09;;;;;;;9.32;5.10;;;;;;;;;;5034046;28;20033;-81
2021/04/03 18:29:35;;;;;;;8.90;4.03;;;;;;;;;;5031385;28;20040;-79
2021/04/03 18:32:00;;;;;;;13.52;9.27;;;;;;;;;;5042564;28;20397;-80
2021/04/03 18:34:26;;;;;;;298.52;237.77;;;;;;;;;;5043129;28;20369;-80
2021/04/03 18:36:51;;;;;;;111.97;82.55;;;;;;;;;;5040652;28;20044;-80
2021/04/03 18:39:17;;;;;;;21.17;10.25;;;;;;;;;;5038273;28;20032;-79
2021/04/03 18:41:42;;;;;;;10.77;4.95;;;;;;;;;;5038167;28;20033;-80
2021/04/03 18:44:08;;;;;;;14.00;5.82;;;;;;;;;;4986941;28;20041;-82
2021/04/03 18:46:34;;;;;;;11.18;5.13;;;;;;;;;;4989030;28;20123;-81
2021/04/03 18:48:59;;;;;;;8.15;3.25;;;;;;;;;;5007801;28;20490;-81
2021/04/03 18:51:25;;;;;;;33.90;21.48;;;;;;;;;;4997204;28;20033;-82
2021/04/03 18:53:50;;;;;;;6.95;4.00;;;;;;;;;;5023650;28;20025;-79
2021/04/03 18:56:15;;;;;;;22.38;18.17;;;;;;;;;;4997988;28;20029;-79
2021/04/03 18:58:41;;;;;;;10.88;4.75;;;;;;;;;;5030399;28;20103;-80
2021/04/03 19:01:06;;;;;;;9.43;6.07;;;;;;;;;;5003189;28;20401;-79
2021/04/03 19:03:32;;;;;;;9.50;6.85;;;;;;;;;;5008082;28;20029;-79
2021/04/03 19:05:58;;;;;;;4.70;3.20;;;;;;;;;;4994456;28;20022;-80
2021/04/03 19:08:25;;;;;;;7.82;4.10;;;;;;;;;;4990058;28;20037;-81
2021/04/03 19:10:50;;;;;;;5.70;4.10;;;;;;;;;;5015005;28;20022;-78
2021/04/03 19:13:16;;;;;;;5.53;3.45;;;;;;;;;;5010007;28;20032;-80
2021/04/03 19:15:42;;;;;;;8.48;3.30;;;;;;;;;;5006281;28;20040;-79
2021/04/03 19:18:08;;;;;;;6.78;4.00;;;;;;;;;;5002288;28;20464;-81
2021/04/03 19:20:36;;;;;;;12.40;8.05;;;;;;;;;;5003169;28;20105;-80
2021/04/03 19:23:02;;;;;;;15.00;9.98;;;;;;;;;;5006841;28;20032;-81
2021/04/03 19:25:28;;;;;;;5.43;3.45;;;;;;;;;;4998781;28;20026;-79
2021/04/03 19:27:58;;;;;;;5.72;4.13;;;;;;;;;;4998668;28;20463;-80
2021/04/03 19:30:25;;;;;;;14.85;10.35;;;;;;;;;;4999588;28;20622;-80
2021/04/03 19:32:50;;;;;;;16.55;10.60;;;;;;;;;;5000375;28;20037;-82
2021/04/03 19:35:16;;;;;;;8.13;4.43;;;;;;;;;;5033407;28;20030;-80
2021/04/03 19:37:42;;;;;;;10.95;8.45;;;;;;;;;;4995628;28;20037;-79
2021/04/03 19:40:08;;;;;;;11.70;7.97;;;;;;;;;;4997569;28;20031;-81
2021/04/03 19:42:34;;;;;;;10.20;6.05;;;;;;;;;;5016759;28;20049;-80
2021/04/03 19:44:59;;;;;;;9.63;5.80;;;;;;;;;;5041627;28;20037;-82
2021/04/03 19:47:25;;;;;;;7.13;3.85;;;;;;;;;;5044588;28;20442;-79
2021/04/03 19:49:50;;;;;;;6.55;3.97;;;;;;;;;;5048583;28;20033;-79
2021/04/03 19:52:17;;;;;;;6.25;3.92;;;;;;;;;;5039920;28;20036;-79
2021/04/03 19:54:42;;;;;;;6.60;3.70;;;;;;;;;;5044866;28;20028;-80
2021/04/03 19:57:08;;;;;;;8.18;3.78;;;;;;;;;;5042809;28;20400;-78
2021/04/03 19:59:33;;;;;;;4.90;3.63;;;;;;;;;;5041174;28;20033;-79
2021/04/03 20:01:59;;;;;;;9.82;4.88;;;;;;;;;;5037018;28;20035;-80
2021/04/03 20:04:25;;;;;;;5.60;3.70;;;;;;;;;;5044088;28;20423;-81
2021/04/03 20:06:50;;;;;;;8.15;3.70;;;;;;;;;;5019462;28;20037;-81
2021/04/03 20:09:16;;;;;;;5.85;3.90;;;;;;;;;;5047467;28;20396;-79
2021/04/03 20:11:41;;;;;;;6.50;3.88;;;;;;;;;;5013408;28;20373;-79
2021/04/03 20:14:09;;;;;;;9.88;4.68;;;;;;;;;;5038750;28;20400;-79
2021/04/03 20:16:39;;;;;;;6.20;4.07;;;;;;;;;;5044782;28;20541;-79
2021/04/03 20:19:06;;;;;;;;;;;;;;;;;;5034510;28;20028;-80
2021/04/03 20:21:31;;;;;;;9.77;5.13;;;;;;;;;;5041110;28;20435;-80
2021/04/03 20:23:57;;;;;;;6.32;4.22;;;;;;;;;;5038522;28;20036;-80
2021/04/03 20:26:22;;;;;;;6.82;4.20;;;;;;;;;;5042052;28;20039;-79
2021/04/03 20:28:48;;;;;;;7.85;4.43;;;;;;;;;;5026240;28;20041;-79
2021/04/03 20:31:13;;;;;;;6.45;3.75;;;;;;;;;;5034179;28;20041;-79
2021/04/03 20:33:39;;;;;;;12.18;10.50;;;;;;;;;;5043546;28;20021;-79
2021/04/03 20:36:05;;;;;;;6.32;4.43;;;;;;;;;;5053323;28;20096;-80
2021/04/03 20:38:30;;;;;;;6.60;4.07;;;;;;;;;;5007495;28;20040;-80
2021/04/03 20:40:56;;;;;;;6.32;5.72;;;;;;;;;;5046923;28;20037;-80
2021/04/03 20:43:22;;;;;;;9.02;6.05;;;;;;;;;;5042791;28;20048;-80
2021/04/03 20:45:47;;;;;;;8.05;3.88;;;;;;;;;;5031210;28;20056;-80
2021/04/03 20:48:13;;;;;;;5.85;3.92;;;;;;;;;;5051389;28;20039;-80
2021/04/03 20:50:38;;;;;;;8.60;4.47;;;;;;;;;;5027521;28;20065;-80
2021/04/03 20:53:04;;;;;;;6.25;3.80;;;;;;;;;;5054211;28;20392;-81
2021/04/03 20:55:29;;;;;;;5.97;3.63;;;;;;;;;;5033187;28;20033;-80
2021/04/03 20:57:55;;;;;;;5.90;3.97;;;;;;;;;;5052069;28;20039;-80
2021/04/03 21:00:21;;;;;;;5.60;3.80;;;;;;;;;;5061183;28;20032;-80
2021/04/03 21:02:47;;;;;;;5.78;3.75;;;;;;;;;;5041323;28;20036;-79
2021/04/03 21:05:13;;;;;;;6.18;3.95;;;;;;;;;;5043674;28;20037;-80